createdAt,value
2023-01-22T00:04:50.878Z,14.57
2023-01-22T00:09:53.149Z,14.47
2023-01-22T00:14:55.666Z,11.80
2023-01-22T00:19:57.918Z,11.50
2023-01-22T00:25:00.131Z,11.27
2023-01-22T00:30:02.312Z,10.97
2023-01-22T00:35:04.894Z,12.80
2023-01-22T00:40:07.618Z,12.70
2023-01-22T00:45:10.594Z,13.33
2023-01-22T00:50:14.255Z,13.40
2023-01-22T00:55:16.662Z,15.87
2023-01-22T01:00:20.295Z,13.53
2023-01-22T01:05:23.669Z,14.67
2023-01-22T01:10:26.520Z,14.43
2023-01-22T01:15:28.807Z,15.30
2023-01-22T01:20:31.415Z,14.47
2023-01-22T01:25:33.999Z,13.03
2023-01-22T01:30:36.376Z,12.03
2023-01-22T01:35:39.174Z,11.50
2023-01-22T01:40:45.259Z,12.70
2023-01-22T01:45:47.540Z,13.90
2023-01-22T01:51:04.491Z,14.47
2023-01-22T01:56:15.937Z,14.13
2023-01-22T02:01:19.554Z,15.03
2023-01-22T02:06:22.397Z,13.60
2023-01-22T02:11:25.947Z,14.37
2023-01-22T02:16:28.501Z,14.03
2023-01-22T02:21:34.005Z,14.53
2023-01-22T02:26:38.039Z,13.10
2023-01-22T02:31:42.245Z,15.70
2023-01-22T02:36:44.651Z,14.70
2023-01-22T02:41:47.069Z,14.90
2023-01-22T02:46:50.571Z,14.50
2023-01-22T02:51:52.912Z,15.00
2023-01-22T02:56:56.730Z,14.53
2023-01-22T03:01:59.226Z,15.23
2023-01-22T03:07:02.312Z,14.53
2023-01-22T03:12:05.032Z,15.97
2023-01-22T03:17:29.077Z,17.33
2023-01-22T03:22:31.649Z,13.50
2023-01-22T03:27:33.864Z,17.97
2023-01-22T03:32:36.178Z,17.57
2023-01-22T03:37:38.578Z,16.80
2023-01-22T03:42:41.148Z,17.93
2023-01-22T03:47:43.408Z,17.50
2023-01-22T03:53:00.500Z,17.83
2023-01-22T03:58:02.817Z,18.27
2023-01-22T04:03:05.191Z,14.80
2023-01-22T04:08:13.357Z,15.30
2023-01-22T04:13:18.358Z,15.47
2023-01-22T04:18:22.731Z,17.03
2023-01-22T04:23:39.699Z,16.23
2023-01-22T04:28:42.021Z,15.40
2023-01-22T04:33:45.125Z,15.70
2023-01-22T04:39:01.455Z,14.97
2023-01-22T04:44:03.847Z,14.87
2023-01-22T04:49:07.671Z,17.50
2023-01-22T04:54:10.598Z,18.97
2023-01-22T04:59:14.397Z,16.27
2023-01-22T05:04:17.326Z,20.27
2023-01-22T05:09:19.917Z,18.77
2023-01-22T05:14:28.131Z,16.33
2023-01-22T05:19:30.579Z,20.00
2023-01-22T05:24:33.007Z,16.50
2023-01-22T05:29:35.787Z,18.73
2023-01-22T05:35:07.648Z,17.80
2023-01-22T05:40:13.358Z,19.10
2023-01-22T05:45:16.058Z,19.77
2023-01-22T05:50:36.881Z,18.47
2023-01-22T05:55:44.883Z,18.37
2023-01-22T06:00:47.450Z,18.27
2023-01-22T06:06:04.518Z,18.40
2023-01-22T06:11:12.664Z,18.00
2023-01-22T06:16:17.507Z,15.60
2023-01-22T06:21:45.694Z,18.20
2023-01-22T06:26:48.411Z,16.30
2023-01-22T06:31:50.877Z,18.50
2023-01-22T06:36:54.573Z,19.77
2023-01-22T06:41:59.596Z,17.53
2023-01-22T06:47:01.917Z,16.20
2023-01-22T06:52:09.026Z,19.90
2023-01-22T06:57:11.320Z,19.90
2023-01-22T07:02:19.873Z,20.10
2023-01-22T07:07:21.973Z,18.70
2023-01-22T07:12:24.294Z,19.77
2023-01-22T07:17:26.546Z,18.20
2023-01-22T07:22:29.089Z,17.10
2023-01-22T07:27:32.629Z,18.23
2023-01-22T07:32:35.587Z,19.40
2023-01-22T07:37:37.809Z,20.77
2023-01-22T07:42:40.026Z,19.37
2023-01-22T07:47:42.270Z,17.37
2023-01-22T07:52:46.181Z,19.60
2023-01-22T07:57:48.574Z,20.00
2023-01-22T08:02:50.793Z,18.27
2023-01-22T08:07:53.105Z,20.60
2023-01-22T08:12:55.226Z,19.70
2023-01-22T08:17:57.673Z,19.47
2023-01-22T08:23:01.442Z,21.23
2023-01-22T08:28:05.757Z,19.27
2023-01-22T08:33:08.000Z,19.20
2023-01-22T08:38:10.089Z,20.27
2023-01-22T08:43:12.276Z,20.20
2023-01-22T08:48:14.517Z,21.60
2023-01-22T08:53:16.715Z,20.53
2023-01-22T08:58:22.184Z,22.30
2023-01-22T09:03:24.792Z,20.63
2023-01-22T09:08:27.025Z,20.00
2023-01-22T09:13:29.229Z,20.50
2023-01-22T09:18:31.325Z,18.07
2023-01-22T09:23:33.562Z,18.67
2023-01-22T09:28:36.244Z,18.63
2023-01-22T09:33:38.601Z,20.83
2023-01-22T09:38:41.709Z,19.00
2023-01-22T09:44:00.400Z,17.00
2023-01-22T09:49:08.642Z,18.17
2023-01-22T09:54:15.636Z,19.20
2023-01-22T09:59:25.632Z,19.20
2023-01-22T10:04:36.097Z,17.90
2023-01-22T10:09:40.595Z,18.33
2023-01-22T10:14:44.334Z,18.30
2023-01-22T10:19:54.086Z,19.80
2023-01-22T10:24:57.820Z,19.40
2023-01-22T10:30:20.456Z,16.33
2023-01-22T10:35:22.833Z,18.10
2023-01-22T10:40:41.107Z,17.93
2023-01-22T10:46:01.708Z,15.23
2023-01-22T10:51:22.442Z,17.37
2023-01-22T10:56:38.682Z,17.00
2023-01-22T11:01:43.259Z,15.73
2023-01-22T11:06:52.983Z,16.17
2023-01-22T11:12:24.232Z,16.20
2023-01-22T11:17:39.349Z,16.83
2023-01-22T11:22:46.646Z,14.00
2023-01-22T11:28:10.025Z,17.23
2023-01-22T11:33:27.667Z,16.10
2023-01-22T11:38:49.087Z,16.90
2023-01-22T11:44:08.039Z,16.00
2023-01-22T11:49:25.600Z,16.27
2023-01-22T11:54:49.585Z,17.77
2023-01-22T12:06:19.595Z,15.37
2023-01-22T12:12:03.088Z,15.13
2023-01-22T12:17:27.261Z,14.80
2023-01-22T12:23:00.912Z,14.30
2023-01-22T12:28:12.832Z,13.63
2023-01-22T12:33:22.366Z,15.47
2023-01-22T12:39:00.031Z,15.63
2023-01-22T12:44:34.672Z,16.13
2023-01-22T12:49:51.762Z,14.20
2023-01-22T12:54:56.172Z,11.70
2023-01-22T13:00:09.305Z,19.53
2023-01-22T13:05:26.805Z,15.33
2023-01-22T13:10:37.562Z,14.50
2023-01-22T13:15:40.132Z,12.40
2023-01-22T13:21:14.209Z,14.10
2023-01-22T13:26:22.951Z,12.90
2023-01-22T13:31:25.849Z,11.90
2023-01-22T13:36:29.091Z,12.70
2023-01-22T13:41:33.142Z,13.40
2023-01-22T13:46:39.373Z,11.20
2023-01-22T13:51:42.804Z,12.60
2023-01-22T13:56:44.993Z,11.30
2023-01-22T14:01:48.408Z,11.17
2023-01-22T14:06:50.536Z,11.53
2023-01-22T14:11:52.748Z,11.50
2023-01-22T14:16:54.949Z,10.60
2023-01-22T14:21:58.375Z,17.50
2023-01-22T14:27:00.683Z,11.77
2023-01-22T14:32:02.798Z,9.83
2023-01-22T14:37:05.083Z,9.50
2023-01-22T14:42:07.201Z,10.40
2023-01-22T14:47:09.969Z,9.90
2023-01-22T14:52:12.349Z,9.77
2023-01-22T14:57:14.430Z,10.80
2023-01-22T15:02:17.261Z,11.80
2023-01-22T15:07:19.415Z,11.47
2023-01-22T15:12:21.658Z,9.67
2023-01-22T15:17:23.927Z,9.80
2023-01-22T15:22:26.202Z,10.90
2023-01-22T15:27:28.377Z,12.00
2023-01-22T15:32:31.982Z,10.23
2023-01-22T15:37:34.104Z,11.40
2023-01-22T15:42:36.654Z,9.93
2023-01-22T15:47:38.901Z,10.17
2023-01-22T15:52:41.091Z,10.87
2023-01-22T15:57:43.303Z,10.20
2023-01-22T16:02:46.004Z,15.87
2023-01-22T16:07:52.157Z,11.43
2023-01-22T16:12:54.783Z,12.47
2023-01-22T16:17:58.021Z,12.50
2023-01-22T16:23:00.231Z,12.53
2023-01-22T16:28:02.530Z,10.87
2023-01-22T16:33:25.353Z,10.07
2023-01-22T16:38:28.598Z,12.90
2023-01-22T16:43:30.670Z,18.80
2023-01-22T16:48:32.856Z,14.43
2023-01-22T16:53:34.998Z,14.20
2023-01-22T16:58:37.450Z,14.83
2023-01-22T17:03:39.759Z,12.83
2023-01-22T17:08:42.017Z,66.97
2023-01-22T17:13:45.069Z,53.40
2023-01-22T17:18:47.785Z,33.10
2023-01-22T17:23:49.901Z,30.20
2023-01-22T17:28:53.327Z,31.80
2023-01-22T17:33:55.781Z,30.30
2023-01-22T17:38:58.433Z,28.77
2023-01-22T17:44:00.969Z,31.63
2023-01-22T17:49:04.845Z,39.80
2023-01-22T17:54:07.873Z,44.70
2023-01-22T17:59:12.636Z,30.00
2023-01-22T18:04:15.376Z,29.27
2023-01-22T18:09:18.266Z,26.40
2023-01-22T18:14:25.653Z,25.77
2023-01-22T18:19:28.214Z,24.50
2023-01-22T18:24:32.368Z,25.40
2023-01-22T18:29:34.453Z,25.17
2023-01-22T18:34:36.574Z,42.20
2023-01-22T18:39:40.691Z,24.27
2023-01-22T18:44:42.793Z,24.67
2023-01-22T18:49:45.691Z,24.13
2023-01-22T18:54:47.918Z,20.07
2023-01-22T18:59:50.031Z,24.50
2023-01-22T19:04:53.554Z,22.10
2023-01-22T19:09:55.675Z,19.30
2023-01-22T19:14:58.069Z,19.93
2023-01-22T19:20:01.433Z,23.43
2023-01-22T19:25:06.457Z,21.57
2023-01-22T19:30:10.311Z,30.43
2023-01-22T19:35:12.426Z,29.40
2023-01-22T19:40:14.755Z,23.53
2023-01-22T19:45:17.318Z,21.27
2023-01-22T19:50:19.938Z,36.47
2023-01-22T19:55:24.746Z,33.87
2023-01-22T20:00:26.849Z,26.27
2023-01-22T20:05:29.052Z,27.00
2023-01-22T20:10:33.044Z,32.30
2023-01-22T20:15:42.945Z,21.33
2023-01-22T20:20:54.045Z,30.90
2023-01-22T20:25:56.949Z,28.77
2023-01-22T20:31:01.964Z,24.67
2023-01-22T20:36:09.734Z,21.30
2023-01-22T20:41:13.185Z,26.53
2023-01-22T20:46:25.121Z,23.57
2023-01-22T20:51:29.732Z,19.40
2023-01-22T20:56:33.904Z,21.33
2023-01-22T21:01:37.103Z,19.40
2023-01-22T21:06:41.353Z,21.00
2023-01-22T21:11:44.040Z,21.37
2023-01-22T21:16:46.749Z,20.63
2023-01-22T21:21:49.400Z,22.23
2023-01-22T21:26:51.755Z,21.67
2023-01-22T21:31:54.208Z,22.10
2023-01-22T21:36:58.817Z,21.00
2023-01-22T21:42:19.539Z,22.47
2023-01-22T21:47:21.891Z,22.10
2023-01-22T21:52:24.072Z,22.33
2023-01-22T21:57:26.234Z,23.17
2023-01-22T22:02:28.531Z,22.03
2023-01-22T22:07:30.796Z,22.67
2023-01-22T22:12:32.920Z,23.77
2023-01-22T22:17:35.262Z,21.17
2023-01-22T22:22:37.635Z,21.67
2023-01-22T22:27:39.872Z,25.63
2023-01-22T22:32:42.001Z,24.87
2023-01-22T22:37:44.221Z,25.07
2023-01-22T22:42:46.311Z,26.43
2023-01-22T22:47:48.496Z,26.97
2023-01-22T22:52:50.706Z,25.47
2023-01-22T22:57:52.791Z,23.33
2023-01-22T23:02:56.151Z,26.40
2023-01-22T23:07:58.519Z,24.97
2023-01-22T23:13:03.441Z,27.53
2023-01-22T23:18:05.568Z,24.70
2023-01-22T23:23:07.783Z,26.87
2023-01-22T23:28:10.054Z,26.30
2023-01-22T23:33:12.279Z,24.53
2023-01-22T23:38:14.479Z,25.30
2023-01-22T23:43:16.589Z,25.10
2023-01-22T23:48:19.812Z,24.93
2023-01-22T23:53:22.823Z,25.27
2023-01-22T23:58:25.211Z,24.47
